sensor_id;sensor_type;location;lat;lon;timestamp;pressure;altitude;pressure_sealevel;temperature;humidity
9822;BME280;4950;46.042;14.472;2023-03-26T00:01:20;97692.22;;;7.61;83.29
9822;BME280;4950;46.042;14.472;2023-03-26T00:03:48;97702.53;;;7.61;82.63
9822;BME280;4950;46.042;14.472;2023-03-26T00:06:20;97695.44;;;7.55;82.49
9822;BME280;4950;46.042;14.472;2023-03-26T00:08:48;97695.59;;;7.53;82.84
9822;BME280;4950;46.042;14.472;2023-03-26T00:11:17;97701.56;;;7.54;83.53
9822;BME280;4950;46.042;14.472;2023-03-26T00:13:45;97703.47;;;7.51;83.54
9822;BME280;4950;46.042;14.472;2023-03-26T00:16:13;97695.91;;;7.50;84.78
9822;BME280;4950;46.042;14.472;2023-03-26T00:18:40;97692.69;;;7.56;85.14
9822;BME280;4950;46.042;14.472;2023-03-26T00:21:10;97695.78;;;7.60;85.11
9822;BME280;4950;46.042;14.472;2023-03-26T00:23:39;97706.91;;;7.60;85.74
9822;BME280;4950;46.042;14.472;2023-03-26T00:26:06;97695.94;;;7.66;85.61
9822;BME280;4950;46.042;14.472;2023-03-26T00:28:35;97705.78;;;7.63;85.85
9822;BME280;4950;46.042;14.472;2023-03-26T00:31:04;97708.84;;;7.58;87.17
9822;BME280;4950;46.042;14.472;2023-03-26T00:33:31;97702.03;;;7.57;86.82
9822;BME280;4950;46.042;14.472;2023-03-26T00:36:04;97699.31;;;7.59;87.33
9822;BME280;4950;46.042;14.472;2023-03-26T00:38:31;97694.63;;;7.62;87.13
9822;BME280;4950;46.042;14.472;2023-03-26T00:41:05;97696.09;;;7.65;87.50
9822;BME280;4950;46.042;14.472;2023-03-26T00:43:32;97695.78;;;7.68;87.40
9822;BME280;4950;46.042;14.472;2023-03-26T00:46:00;97684.47;;;7.61;87.80
9822;BME280;4950;46.042;14.472;2023-03-26T00:48:27;97682.22;;;7.66;88.13
9822;BME280;4950;46.042;14.472;2023-03-26T00:50:55;97685.09;;;7.71;88.38
9822;BME280;4950;46.042;14.472;2023-03-26T00:53:22;97679.63;;;7.74;88.67
9822;BME280;4950;46.042;14.472;2023-03-26T00:55:49;97684.16;;;7.72;88.24
9822;BME280;4950;46.042;14.472;2023-03-26T00:58:17;97678.50;;;7.77;88.93
9822;BME280;4950;46.042;14.472;2023-03-26T01:00:49;97672.34;;;7.86;88.87
9822;BME280;4950;46.042;14.472;2023-03-26T01:03:18;97665.75;;;7.83;88.49
9822;BME280;4950;46.042;14.472;2023-03-26T01:05:47;97659.59;;;7.84;89.20
9822;BME280;4950;46.042;14.472;2023-03-26T01:08:25;97660.09;;;7.80;89.41
9822;BME280;4950;46.042;14.472;2023-03-26T01:10:55;97657.66;;;7.78;89.56
9822;BME280;4950;46.042;14.472;2023-03-26T01:13:31;97663.97;;;7.84;89.14
9822;BME280;4950;46.042;14.472;2023-03-26T01:15:59;97660.88;;;7.88;89.02
9822;BME280;4950;46.042;14.472;2023-03-26T01:18:29;97663.16;;;7.91;89.08
9822;BME280;4950;46.042;14.472;2023-03-26T01:20:59;97649.75;;;7.88;89.30
9822;BME280;4950;46.042;14.472;2023-03-26T01:23:37;97652.16;;;7.73;88.77
9822;BME280;4950;46.042;14.472;2023-03-26T01:26:11;97641.69;;;7.58;89.95
9822;BME280;4950;46.042;14.472;2023-03-26T01:28:40;97636.66;;;7.65;89.88
9822;BME280;4950;46.042;14.472;2023-03-26T01:31:13;97637.31;;;7.67;90.25
9822;BME280;4950;46.042;14.472;2023-03-26T01:33:48;97629.25;;;7.78;89.33
9822;BME280;4950;46.042;14.472;2023-03-26T01:36:21;97633.25;;;7.81;88.85
9822;BME280;4950;46.042;14.472;2023-03-26T01:38:56;97629.56;;;7.59;88.79
9822;BME280;4950;46.042;14.472;2023-03-26T01:41:29;97629.22;;;7.45;88.90
9822;BME280;4950;46.042;14.472;2023-03-26T01:44:03;97625.34;;;7.33;89.58
9822;BME280;4950;46.042;14.472;2023-03-26T01:46:32;97621.28;;;7.22;90.76
9822;BME280;4950;46.042;14.472;2023-03-26T01:49:02;97619.34;;;7.24;90.80
9822;BME280;4950;46.042;14.472;2023-03-26T01:51:31;97614.53;;;7.21;91.10
9822;BME280;4950;46.042;14.472;2023-03-26T01:53:58;97624.53;;;7.24;90.69
9822;BME280;4950;46.042;14.472;2023-03-26T01:56:33;97624.06;;;7.21;90.71
9822;BME280;4950;46.042;14.472;2023-03-26T01:59:15;97623.56;;;7.17;90.53
9822;BME280;4950;46.042;14.472;2023-03-26T02:01:50;97618.06;;;7.12;90.55
9822;BME280;4950;46.042;14.472;2023-03-26T02:04:23;97625.13;;;7.02;90.71
9822;BME280;4950;46.042;14.472;2023-03-26T02:06:55;97624.28;;;6.93;91.79
9822;BME280;4950;46.042;14.472;2023-03-26T02:09:28;97626.72;;;6.95;91.88
9822;BME280;4950;46.042;14.472;2023-03-26T02:11:58;97624.28;;;6.85;91.91
9822;BME280;4950;46.042;14.472;2023-03-26T02:14:28;97622.63;;;6.76;93.68
9822;BME280;4950;46.042;14.472;2023-03-26T02:16:55;97623.63;;;6.83;93.79
9822;BME280;4950;46.042;14.472;2023-03-26T02:19:23;97619.78;;;6.87;93.41
9822;BME280;4950;46.042;14.472;2023-03-26T02:21:49;97618.97;;;6.95;93.15
9822;BME280;4950;46.042;14.472;2023-03-26T02:24:16;97616.88;;;6.90;93.42
9822;BME280;4950;46.042;14.472;2023-03-26T02:26:43;97615.75;;;6.92;93.34
9822;BME280;4950;46.042;14.472;2023-03-26T02:29:12;97617.53;;;6.92;93.08
9822;BME280;4950;46.042;14.472;2023-03-26T02:31:43;97618.34;;;7.01;93.26
9822;BME280;4950;46.042;14.472;2023-03-26T02:34:11;97615.47;;;7.04;92.91
9822;BME280;4950;46.042;14.472;2023-03-26T02:36:38;97607.09;;;7.10;93.37
9822;BME280;4950;46.042;14.472;2023-03-26T02:39:07;97611.75;;;7.15;92.94
9822;BME280;4950;46.042;14.472;2023-03-26T02:41:35;97612.72;;;6.97;92.78
9822;BME280;4950;46.042;14.472;2023-03-26T02:44:02;97609.78;;;6.84;93.49
9822;BME280;4950;46.042;14.472;2023-03-26T02:46:31;97614.75;;;6.85;94.28
9822;BME280;4950;46.042;14.472;2023-03-26T02:48:57;97615.31;;;6.97;93.85
9822;BME280;4950;46.042;14.472;2023-03-26T02:51:24;97618.69;;;6.98;93.43
9822;BME280;4950;46.042;14.472;2023-03-26T02:53:51;97625.13;;;6.94;93.79
9822;BME280;4950;46.042;14.472;2023-03-26T02:56:19;97619.47;;;6.98;93.90
9822;BME280;4950;46.042;14.472;2023-03-26T02:58:46;97621.09;;;6.99;93.66
9822;BME280;4950;46.042;14.472;2023-03-26T03:01:12;97616.47;;;7.11;93.91
9822;BME280;4950;46.042;14.472;2023-03-26T03:03:44;97614.25;;;6.73;94.18
9822;BME280;4950;46.042;14.472;2023-03-26T03:06:13;97626.34;;;6.73;95.08
9822;BME280;4950;46.042;14.472;2023-03-26T03:08:41;97613.63;;;6.80;95.63
9822;BME280;4950;46.042;14.472;2023-03-26T03:11:11;97611.72;;;6.90;95.28
9822;BME280;4950;46.042;14.472;2023-03-26T03:13:38;97613.38;;;6.99;94.64
9822;BME280;4950;46.042;14.472;2023-03-26T03:16:06;97609.66;;;7.10;94.58
9822;BME280;4950;46.042;14.472;2023-03-26T03:18:32;97608.22;;;7.16;94.46
9822;BME280;4950;46.042;14.472;2023-03-26T03:21:01;97600.81;;;7.21;93.78
9822;BME280;4950;46.042;14.472;2023-03-26T03:23:28;97604.06;;;7.23;93.63
9822;BME280;4950;46.042;14.472;2023-03-26T03:25:55;97590.66;;;7.27;93.92
9822;BME280;4950;46.042;14.472;2023-03-26T03:28:22;97587.13;;;7.28;93.63
9822;BME280;4950;46.042;14.472;2023-03-26T03:30:50;97584.03;;;7.25;93.67
9822;BME280;4950;46.042;14.472;2023-03-26T03:33:17;97592.44;;;7.19;93.68
9822;BME280;4950;46.042;14.472;2023-03-26T03:35:44;97606.63;;;7.23;93.68
9822;BME280;4950;46.042;14.472;2023-03-26T03:38:14;97609.53;;;7.28;93.69
9822;BME280;4950;46.042;14.472;2023-03-26T03:40:41;97603.41;;;7.29;93.32
9822;BME280;4950;46.042;14.472;2023-03-26T03:43:08;97617.28;;;7.28;93.42
9822;BME280;4950;46.042;14.472;2023-03-26T03:45:34;97614.69;;;7.28;93.22
9822;BME280;4950;46.042;14.472;2023-03-26T03:48:02;97621.47;;;7.37;93.13
9822;BME280;4950;46.042;14.472;2023-03-26T03:50:28;97609.56;;;7.44;93.58
9822;BME280;4950;46.042;14.472;2023-03-26T03:52:55;97621.34;;;7.39;92.98
9822;BME280;4950;46.042;14.472;2023-03-26T03:55:24;97614.53;;;7.46;93.39
9822;BME280;4950;46.042;14.472;2023-03-26T03:57:52;97624.88;;;7.46;92.76
9822;BME280;4950;46.042;14.472;2023-03-26T04:00:19;97621.63;;;7.44;92.54
9822;BME280;4950;46.042;14.472;2023-03-26T04:02:46;97622.97;;;7.48;92.99
9822;BME280;4950;46.042;14.472;2023-03-26T04:05:13;97615.53;;;7.53;92.16
9822;BME280;4950;46.042;14.472;2023-03-26T04:07:40;97617.47;;;7.35;91.76
9822;BME280;4950;46.042;14.472;2023-03-26T04:10:08;97623.41;;;7.35;92.75
9822;BME280;4950;46.042;14.472;2023-03-26T04:12:36;97625.81;;;7.12;92.91
9822;BME280;4950;46.042;14.472;2023-03-26T04:15:03;97615.47;;;7.20;93.01
9822;BME280;4950;46.042;14.472;2023-03-26T04:17:30;97618.25;;;7.19;92.42
9822;BME280;4950;46.042;14.472;2023-03-26T04:19:56;97614.53;;;7.13;92.44
9822;BME280;4950;46.042;14.472;2023-03-26T04:22:31;97622.69;;;6.92;93.64
9822;BME280;4950;46.042;14.472;2023-03-26T04:24:59;97616.22;;;6.80;94.09
9822;BME280;4950;46.042;14.472;2023-03-26T04:27:29;97610.44;;;6.86;94.61
9822;BME280;4950;46.042;14.472;2023-03-26T04:30:01;97605.13;;;6.87;94.45
9822;BME280;4950;46.042;14.472;2023-03-26T04:32:30;97599.13;;;6.87;93.25
9822;BME280;4950;46.042;14.472;2023-03-26T04:34:59;97599.47;;;6.84;93.99
9822;BME280;4950;46.042;14.472;2023-03-26T04:37:28;97608.47;;;6.80;94.22
9822;BME280;4950;46.042;14.472;2023-03-26T04:39:58;97609.59;;;6.77;95.07
9822;BME280;4950;46.042;14.472;2023-03-26T04:42:25;97608.28;;;6.73;95.12
9822;BME280;4950;46.042;14.472;2023-03-26T04:44:53;97612.56;;;6.56;95.25
9822;BME280;4950;46.042;14.472;2023-03-26T04:47:21;97620.13;;;6.49;96.29
9822;BME280;4950;46.042;14.472;2023-03-26T04:49:47;97625.13;;;6.51;96.93
9822;BME280;4950;46.042;14.472;2023-03-26T04:52:14;97623.50;;;6.50;96.68
9822;BME280;4950;46.042;14.472;2023-03-26T04:54:42;97622.22;;;6.54;96.68
9822;BME280;4950;46.042;14.472;2023-03-26T04:57:14;97611.97;;;6.62;95.96
9822;BME280;4950;46.042;14.472;2023-03-26T04:59:42;97610.34;;;6.61;95.73
9822;BME280;4950;46.042;14.472;2023-03-26T05:02:10;97596.00;;;6.59;96.01
9822;BME280;4950;46.042;14.472;2023-03-26T05:04:39;97597.28;;;6.55;96.19
9822;BME280;4950;46.042;14.472;2023-03-26T05:07:08;97602.94;;;6.58;96.52
9822;BME280;4950;46.042;14.472;2023-03-26T05:09:35;97609.97;;;6.48;96.70
9822;BME280;4950;46.042;14.472;2023-03-26T05:12:02;97600.59;;;6.39;96.93
9822;BME280;4950;46.042;14.472;2023-03-26T05:14:29;97600.91;;;6.44;97.40
9822;BME280;4950;46.042;14.472;2023-03-26T05:16:56;97592.56;;;6.50;97.16
9822;BME280;4950;46.042;14.472;2023-03-26T05:19:23;97588.88;;;6.52;97.16
9822;BME280;4950;46.042;14.472;2023-03-26T05:21:51;97585.69;;;6.59;97.01
9822;BME280;4950;46.042;14.472;2023-03-26T05:24:17;97581.03;;;6.62;96.57
9822;BME280;4950;46.042;14.472;2023-03-26T05:26:44;97582.00;;;6.69;96.53
9822;BME280;4950;46.042;14.472;2023-03-26T05:29:16;97581.06;;;6.79;96.79
9822;BME280;4950;46.042;14.472;2023-03-26T05:31:43;97580.75;;;6.82;96.27
9822;BME280;4950;46.042;14.472;2023-03-26T05:34:09;97575.75;;;6.88;96.55
9822;BME280;4950;46.042;14.472;2023-03-26T05:36:37;97573.97;;;6.89;95.78
9822;BME280;4950;46.042;14.472;2023-03-26T05:39:05;97576.56;;;6.89;95.67
9822;BME280;4950;46.042;14.472;2023-03-26T05:41:32;97588.66;;;6.80;95.99
9822;BME280;4950;46.042;14.472;2023-03-26T05:43:59;97598.47;;;6.85;95.88
9822;BME280;4950;46.042;14.472;2023-03-26T05:46:28;97594.16;;;6.94;96.28
9822;BME280;4950;46.042;14.472;2023-03-26T05:48:54;97593.19;;;7.03;96.17
9822;BME280;4950;46.042;14.472;2023-03-26T05:51:21;97583.84;;;7.10;95.71
9822;BME280;4950;46.042;14.472;2023-03-26T05:53:48;97591.75;;;7.17;95.59
9822;BME280;4950;46.042;14.472;2023-03-26T05:56:16;97590.00;;;7.09;95.25
9822;BME280;4950;46.042;14.472;2023-03-26T05:58:43;97595.81;;;7.11;95.77
9822;BME280;4950;46.042;14.472;2023-03-26T06:01:12;97594.34;;;7.17;95.74
9822;BME280;4950;46.042;14.472;2023-03-26T06:03:42;97587.44;;;7.25;95.31
9822;BME280;4950;46.042;14.472;2023-03-26T06:06:11;97585.00;;;7.24;95.25
9822;BME280;4950;46.042;14.472;2023-03-26T06:08:39;97586.63;;;7.25;94.46
9822;BME280;4950;46.042;14.472;2023-03-26T06:11:06;97580.97;;;7.29;94.77
9822;BME280;4950;46.042;14.472;2023-03-26T06:13:35;97568.72;;;7.31;94.49
9822;BME280;4950;46.042;14.472;2023-03-26T06:16:02;97571.78;;;7.27;94.04
9822;BME280;4950;46.042;14.472;2023-03-26T06:18:29;97570.78;;;7.36;94.21
9822;BME280;4950;46.042;14.472;2023-03-26T06:20:56;97564.03;;;7.43;93.63
9822;BME280;4950;46.042;14.472;2023-03-26T06:23:23;97560.50;;;7.44;93.30
9822;BME280;4950;46.042;14.472;2023-03-26T06:25:49;97564.38;;;7.48;93.74
9822;BME280;4950;46.042;14.472;2023-03-26T06:28:16;97570.81;;;7.53;93.37
9822;BME280;4950;46.042;14.472;2023-03-26T06:30:44;97580.81;;;7.56;92.98
9822;BME280;4950;46.042;14.472;2023-03-26T06:33:11;97573.25;;;7.54;92.83
9822;BME280;4950;46.042;14.472;2023-03-26T06:35:37;97576.47;;;7.56;93.42
9822;BME280;4950;46.042;14.472;2023-03-26T06:38:04;97582.75;;;7.62;92.96
9822;BME280;4950;46.042;14.472;2023-03-26T06:40:32;97586.94;;;7.63;92.56
9822;BME280;4950;46.042;14.472;2023-03-26T06:42:58;97580.47;;;7.67;92.20
9822;BME280;4950;46.042;14.472;2023-03-26T06:45:25;97580.97;;;7.62;92.02
9822;BME280;4950;46.042;14.472;2023-03-26T06:47:54;97584.06;;;7.58;92.03
9822;BME280;4950;46.042;14.472;2023-03-26T06:50:20;97586.47;;;7.51;92.02
9822;BME280;4950;46.042;14.472;2023-03-26T06:52:47;97598.25;;;7.37;92.04
9822;BME280;4950;46.042;14.472;2023-03-26T06:55:15;97599.19;;;7.36;93.04
9822;BME280;4950;46.042;14.472;2023-03-26T06:57:41;97593.72;;;7.39;92.72
9822;BME280;4950;46.042;14.472;2023-03-26T07:00:10;97596.00;;;7.42;92.70
9822;BME280;4950;46.042;14.472;2023-03-26T07:02:37;97590.19;;;7.48;92.82
9822;BME280;4950;46.042;14.472;2023-03-26T07:05:06;97589.22;;;7.58;92.83
9822;BME280;4950;46.042;14.472;2023-03-26T07:07:33;97588.38;;;7.65;92.35
9822;BME280;4950;46.042;14.472;2023-03-26T07:09:59;97582.41;;;7.73;91.64
9822;BME280;4950;46.042;14.472;2023-03-26T07:12:26;97591.78;;;7.74;91.46
9822;BME280;4950;46.042;14.472;2023-03-26T07:14:53;97577.91;;;7.59;90.95
9822;BME280;4950;46.042;14.472;2023-03-26T07:17:20;97586.94;;;7.63;91.69
9822;BME280;4950;46.042;14.472;2023-03-26T07:19:46;97591.97;;;7.56;92.46
9822;BME280;4950;46.042;14.472;2023-03-26T07:22:19;97587.25;;;7.51;92.27
9822;BME280;4950;46.042;14.472;2023-03-26T07:24:47;97575.47;;;7.57;92.17
9822;BME280;4950;46.042;14.472;2023-03-26T07:27:26;97571.59;;;7.53;92.55
9822;BME280;4950;46.042;14.472;2023-03-26T07:30:04;97567.88;;;7.56;92.43
9822;BME280;4950;46.042;14.472;2023-03-26T07:32:36;97570.47;;;7.56;92.22
9822;BME280;4950;46.042;14.472;2023-03-26T07:35:12;97569.03;;;7.53;92.33
9822;BME280;4950;46.042;14.472;2023-03-26T07:37:49;97566.78;;;7.58;93.03
9822;BME280;4950;46.042;14.472;2023-03-26T07:40:38;97549.00;;;7.63;92.69
9822;BME280;4950;46.042;14.472;2023-03-26T07:43:09;97549.50;;;7.59;91.88
9822;BME280;4950;46.042;14.472;2023-03-26T07:45:41;97541.09;;;7.65;91.97
9822;BME280;4950;46.042;14.472;2023-03-26T07:48:12;97533.84;;;7.60;92.32
9822;BME280;4950;46.042;14.472;2023-03-26T07:50:41;97520.13;;;7.60;91.78
9822;BME280;4950;46.042;14.472;2023-03-26T07:53:10;97508.50;;;7.64;92.72
9822;BME280;4950;46.042;14.472;2023-03-26T07:55:44;97497.16;;;7.73;92.50
9822;BME280;4950;46.042;14.472;2023-03-26T07:58:22;97489.41;;;7.73;91.69
9822;BME280;4950;46.042;14.472;2023-03-26T08:00:58;97499.53;;;7.83;91.44
9822;BME280;4950;46.042;14.472;2023-03-26T08:03:41;97498.59;;;7.84;90.58
9822;BME280;4950;46.042;14.472;2023-03-26T08:06:15;97497.16;;;7.81;90.60
9822;BME280;4950;46.042;14.472;2023-03-26T08:08:50;97489.41;;;7.81;91.16
9822;BME280;4950;46.042;14.472;2023-03-26T08:11:27;97480.97;;;7.87;91.56
9822;BME280;4950;46.042;14.472;2023-03-26T08:14:07;97483.84;;;7.93;90.58
9822;BME280;4950;46.042;14.472;2023-03-26T08:16:43;97492.41;;;8.01;89.77
9822;BME280;4950;46.042;14.472;2023-03-26T08:19:23;97490.59;;;8.02;88.85
9822;BME280;4950;46.042;14.472;2023-03-26T08:21:59;97490.81;;;7.92;89.12
9822;BME280;4950;46.042;14.472;2023-03-26T08:24:35;97487.91;;;7.87;89.27
9822;BME280;4950;46.042;14.472;2023-03-26T08:27:09;97487.28;;;7.77;89.02
9822;BME280;4950;46.042;14.472;2023-03-26T08:29:47;97489.09;;;7.68;89.65
9822;BME280;4950;46.042;14.472;2023-03-26T08:32:19;97478.75;;;7.76;90.20
9822;BME280;4950;46.042;14.472;2023-03-26T08:34:46;97478.38;;;7.87;89.61
9822;BME280;4950;46.042;14.472;2023-03-26T08:37:13;97472.72;;;7.92;89.13
9822;BME280;4950;46.042;14.472;2023-03-26T08:39:41;97463.81;;;7.95;89.71
9822;BME280;4950;46.042;14.472;2023-03-26T08:45:43;97462.97;;;8.10;88.63
9822;BME280;4950;46.042;14.472;2023-03-26T08:51:32;97459.28;;;8.28;87.97
9822;BME280;4950;46.042;14.472;2023-03-26T08:57:26;97452.91;;;8.47;88.21
9822;BME280;4950;46.042;14.472;2023-03-26T09:00:32;97448.03;;;8.52;88.02
9822;BME280;4950;46.042;14.472;2023-03-26T09:03:16;97448.16;;;8.59;87.34
9822;BME280;4950;46.042;14.472;2023-03-26T09:12:12;97442.69;;;8.77;87.29
9822;BME280;4950;46.042;14.472;2023-03-26T09:15:22;97433.38;;;8.91;88.06
9822;BME280;4950;46.042;14.472;2023-03-26T09:21:02;97418.41;;;9.16;85.89
9822;BME280;4950;46.042;14.472;2023-03-26T09:26:45;97424.53;;;9.53;83.81
9822;BME280;4950;46.042;14.472;2023-03-26T09:35:26;97393.41;;;10.34;80.87
9822;BME280;4950;46.042;14.472;2023-03-26T09:37:59;97389.09;;;10.41;78.72
9822;BME280;4950;46.042;14.472;2023-03-26T09:40:35;97374.44;;;10.55;79.09
9822;BME280;4950;46.042;14.472;2023-03-26T09:43:28;97371.47;;;10.58;77.86
9822;BME280;4950;46.042;14.472;2023-03-26T09:46:07;97352.75;;;10.62;76.61
9822;BME280;4950;46.042;14.472;2023-03-26T09:49:15;97341.00;;;10.66;75.19
9822;BME280;4950;46.042;14.472;2023-03-26T09:51:58;97344.00;;;10.70;75.56
9822;BME280;4950;46.042;14.472;2023-03-26T09:54:49;97339.47;;;10.79;74.36
9822;BME280;4950;46.042;14.472;2023-03-26T09:57:41;97328.78;;;10.95;75.02
9822;BME280;4950;46.042;14.472;2023-03-26T10:00:27;97321.78;;;11.24;73.73
9822;BME280;4950;46.042;14.472;2023-03-26T10:03:13;97317.44;;;11.31;72.18
9822;BME280;4950;46.042;14.472;2023-03-26T10:06:03;97310.09;;;11.48;70.97
9822;BME280;4950;46.042;14.472;2023-03-26T10:08:56;97304.09;;;11.48;71.14
9822;BME280;4950;46.042;14.472;2023-03-26T10:11:33;97301.13;;;11.57;72.13
9822;BME280;4950;46.042;14.472;2023-03-26T10:14:12;97301.38;;;11.69;72.20
9822;BME280;4950;46.042;14.472;2023-03-26T10:16:54;97299.59;;;11.83;72.26
9822;BME280;4950;46.042;14.472;2023-03-26T10:19:36;97299.28;;;11.99;71.04
9822;BME280;4950;46.042;14.472;2023-03-26T10:22:19;97295.09;;;12.12;70.26
9822;BME280;4950;46.042;14.472;2023-03-26T10:25:12;97293.47;;;12.04;70.26
9822;BME280;4950;46.042;14.472;2023-03-26T10:27:51;97290.50;;;12.14;69.49
9822;BME280;4950;46.042;14.472;2023-03-26T10:30:46;97278.09;;;12.16;69.99
9822;BME280;4950;46.042;14.472;2023-03-26T10:33:21;97269.06;;;12.18;69.80
9822;BME280;4950;46.042;14.472;2023-03-26T10:35:58;97264.88;;;12.31;69.14
9822;BME280;4950;46.042;14.472;2023-03-26T10:38:42;97256.28;;;12.37;68.31
9822;BME280;4950;46.042;14.472;2023-03-26T10:41:17;97255.25;;;12.38;69.21
9822;BME280;4950;46.042;14.472;2023-03-26T10:43:57;97253.28;;;12.47;69.21
9822;BME280;4950;46.042;14.472;2023-03-26T10:46:51;97246.47;;;12.52;69.08
9822;BME280;4950;46.042;14.472;2023-03-26T10:49:49;97243.03;;;12.65;68.22
9822;BME280;4950;46.042;14.472;2023-03-26T10:52:21;97250.84;;;12.65;67.47
9822;BME280;4950;46.042;14.472;2023-03-26T10:54:55;97240.84;;;12.62;67.32
9822;BME280;4950;46.042;14.472;2023-03-26T10:57:32;97239.03;;;12.62;67.63
9822;BME280;4950;46.042;14.472;2023-03-26T11:00:13;97234.41;;;12.64;68.05
9822;BME280;4950;46.042;14.472;2023-03-26T11:02:45;97223.97;;;12.71;67.46
9822;BME280;4950;46.042;14.472;2023-03-26T11:05:30;97215.19;;;12.66;67.47
9822;BME280;4950;46.042;14.472;2023-03-26T11:08:06;97206.56;;;12.72;67.31
9822;BME280;4950;46.042;14.472;2023-03-26T11:10:46;97201.53;;;12.83;68.69
9822;BME280;4950;46.042;14.472;2023-03-26T11:13:20;97196.63;;;13.00;68.41
9822;BME280;4950;46.042;14.472;2023-03-26T11:15:55;97195.56;;;13.21;66.89
9822;BME280;4950;46.042;14.472;2023-03-26T11:18:29;97183.28;;;13.35;66.39
9822;BME280;4950;46.042;14.472;2023-03-26T11:21:05;97178.19;;;13.54;64.70
9822;BME280;4950;46.042;14.472;2023-03-26T11:23:35;97181.50;;;13.68;63.95
9822;BME280;4950;46.042;14.472;2023-03-26T11:26:10;97183.78;;;13.82;63.69
9822;BME280;4950;46.042;14.472;2023-03-26T11:28:55;97178.53;;;13.89;62.21
9822;BME280;4950;46.042;14.472;2023-03-26T11:31:33;97175.75;;;13.84;61.40
9822;BME280;4950;46.042;14.472;2023-03-26T11:34:08;97164.94;;;13.80;62.10
9822;BME280;4950;46.042;14.472;2023-03-26T11:36:41;97156.03;;;13.88;61.33
9822;BME280;4950;46.042;14.472;2023-03-26T11:39:11;97154.88;;;14.09;59.81
9822;BME280;4950;46.042;14.472;2023-03-26T11:41:42;97139.47;;;14.26;59.05
9822;BME280;4950;46.042;14.472;2023-03-26T11:44:15;97136.28;;;14.42;59.20
9822;BME280;4950;46.042;14.472;2023-03-26T11:46:45;97131.13;;;14.54;56.88
9822;BME280;4950;46.042;14.472;2023-03-26T11:49:15;97128.03;;;14.64;57.60
9822;BME280;4950;46.042;14.472;2023-03-26T11:51:45;97109.16;;;14.80;57.52
9822;BME280;4950;46.042;14.472;2023-03-26T11:54:13;97110.16;;;14.98;58.43
9822;BME280;4950;46.042;14.472;2023-03-26T11:56:45;97106.69;;;15.16;56.44
9822;BME280;4950;46.042;14.472;2023-03-26T11:59:16;97097.16;;;15.22;55.77
9822;BME280;4950;46.042;14.472;2023-03-26T12:01:49;97103.53;;;15.26;55.50
9822;BME280;4950;46.042;14.472;2023-03-26T12:04:17;97090.69;;;15.36;56.03
9822;BME280;4950;46.042;14.472;2023-03-26T12:06:53;97097.22;;;15.57;54.73
9822;BME280;4950;46.042;14.472;2023-03-26T12:09:21;97094.50;;;15.64;54.86
9822;BME280;4950;46.042;14.472;2023-03-26T12:11:53;97078.84;;;15.75;54.71
9822;BME280;4950;46.042;14.472;2023-03-26T12:14:26;97078.06;;;15.87;54.13
9822;BME280;4950;46.042;14.472;2023-03-26T12:16:58;97078.28;;;15.97;54.72
9822;BME280;4950;46.042;14.472;2023-03-26T12:19:25;97083.06;;;16.12;54.24
9822;BME280;4950;46.042;14.472;2023-03-26T12:21:53;97075.97;;;16.24;54.39
9822;BME280;4950;46.042;14.472;2023-03-26T12:24:28;97068.88;;;16.36;53.37
9822;BME280;4950;46.042;14.472;2023-03-26T12:26:58;97064.63;;;16.59;52.89
9822;BME280;4950;46.042;14.472;2023-03-26T12:29:28;97054.06;;;16.83;52.98
9822;BME280;4950;46.042;14.472;2023-03-26T12:32:04;97038.31;;;17.11;51.60
9822;BME280;4950;46.042;14.472;2023-03-26T12:34:34;97036.44;;;17.41;51.31
9822;BME280;4950;46.042;14.472;2023-03-26T12:37:03;97023.84;;;17.76;52.59
9822;BME280;4950;46.042;14.472;2023-03-26T12:39:36;97019.88;;;18.13;51.48
9822;BME280;4950;46.042;14.472;2023-03-26T12:42:22;97012.06;;;18.40;50.37
9822;BME280;4950;46.042;14.472;2023-03-26T12:44:51;96993.13;;;18.65;48.65
9822;BME280;4950;46.042;14.472;2023-03-26T12:47:20;96996.84;;;18.69;48.67
9822;BME280;4950;46.042;14.472;2023-03-26T12:49:49;96988.94;;;18.91;48.48
9822;BME280;4950;46.042;14.472;2023-03-26T12:52:29;96981.94;;;18.75;47.75
9822;BME280;4950;46.042;14.472;2023-03-26T12:55:04;96978.38;;;18.59;48.51
9822;BME280;4950;46.042;14.472;2023-03-26T12:57:36;96969.75;;;18.69;47.92
9822;BME280;4950;46.042;14.472;2023-03-26T13:00:18;96953.72;;;18.92;48.05
9822;BME280;4950;46.042;14.472;2023-03-26T13:03:14;96951.50;;;19.17;47.09
9822;BME280;4950;46.042;14.472;2023-03-26T13:05:54;96936.38;;;19.39;46.93
9822;BME280;4950;46.042;14.472;2023-03-26T13:11:26;96916.66;;;19.84;45.49
9822;BME280;4950;46.042;14.472;2023-03-26T13:14:07;96925.09;;;19.91;45.20
9822;BME280;4950;46.042;14.472;2023-03-26T13:16:40;96923.28;;;20.07;45.08
9822;BME280;4950;46.042;14.472;2023-03-26T13:19:14;96920.19;;;20.26;45.61
9822;BME280;4950;46.042;14.472;2023-03-26T13:21:58;96914.22;;;20.61;44.26
9822;BME280;4950;46.042;14.472;2023-03-26T13:24:38;96914.19;;;20.51;43.88
9822;BME280;4950;46.042;14.472;2023-03-26T13:27:21;96902.38;;;20.74;44.10
9822;BME280;4950;46.042;14.472;2023-03-26T13:29:55;96899.41;;;21.22;44.10
9822;BME280;4950;46.042;14.472;2023-03-26T13:32:33;96887.78;;;21.48;44.00
9822;BME280;4950;46.042;14.472;2023-03-26T13:35:13;96887.75;;;21.38;42.75
9822;BME280;4950;46.042;14.472;2023-03-26T13:37:49;96877.47;;;21.52;42.50
9822;BME280;4950;46.042;14.472;2023-03-26T13:40:24;96866.13;;;21.31;42.65
9822;BME280;4950;46.042;14.472;2023-03-26T13:43:11;96861.69;;;21.21;42.63
9822;BME280;4950;46.042;14.472;2023-03-26T13:45:51;96857.16;;;21.32;41.58
9822;BME280;4950;46.042;14.472;2023-03-26T13:48:23;96861.63;;;21.32;42.41
9822;BME280;4950;46.042;14.472;2023-03-26T13:50:57;96843.69;;;21.28;42.08
9822;BME280;4950;46.042;14.472;2023-03-26T13:53:30;96837.28;;;21.60;42.53
9822;BME280;4950;46.042;14.472;2023-03-26T13:55:59;96836.06;;;21.27;42.29
9822;BME280;4950;46.042;14.472;2023-03-26T13:58:33;96823.19;;;20.95;43.59
9822;BME280;4950;46.042;14.472;2023-03-26T14:01:04;96813.72;;;20.78;43.38
9822;BME280;4950;46.042;14.472;2023-03-26T14:03:40;96820.56;;;20.43;44.23
9822;BME280;4950;46.042;14.472;2023-03-26T14:06:23;96812.16;;;20.31;44.30
9822;BME280;4950;46.042;14.472;2023-03-26T14:08:56;96800.25;;;20.08;46.02
9822;BME280;4950;46.042;14.472;2023-03-26T14:11:34;96801.03;;;19.98;45.58
9822;BME280;4950;46.042;14.472;2023-03-26T14:14:07;96787.31;;;19.91;46.06
9822;BME280;4950;46.042;14.472;2023-03-26T14:16:39;96791.66;;;19.44;46.87